createdAt,value
2023-02-22T00:00:48.451Z,42.47
2023-02-22T00:03:28.139Z,42.20
2023-02-22T00:05:59.696Z,37.85
2023-02-22T00:08:30.600Z,38.47
2023-02-22T00:10:58.686Z,34.35
2023-02-22T00:13:25.741Z,39.53
2023-02-22T00:15:52.463Z,37.03
2023-02-22T00:18:20.044Z,39.08
2023-02-22T00:20:46.971Z,37.42
2023-02-22T00:23:20.203Z,38.78
2023-02-22T00:25:49.922Z,39.57
2023-02-22T00:28:20.166Z,36.28
2023-02-22T00:30:54.470Z,38.15
2023-02-22T00:33:27.895Z,36.47
2023-02-22T00:35:59.857Z,41.42
2023-02-22T00:38:26.971Z,36.37
2023-02-22T00:40:53.626Z,34.15
2023-02-22T00:43:21.948Z,34.35
2023-02-22T00:46:11.230Z,38.78
2023-02-22T00:48:55.843Z,38.28
2023-02-22T00:51:48.959Z,36.30
2023-02-22T00:54:20.243Z,35.42
2023-02-22T00:56:47.114Z,39.17
2023-02-22T00:59:13.950Z,35.28
2023-02-22T01:01:41.050Z,35.17
2023-02-22T01:04:07.791Z,39.47
2023-02-22T01:06:34.834Z,36.13
2023-02-22T01:09:02.410Z,37.20
2023-02-22T01:11:29.217Z,34.88
2023-02-22T01:13:57.803Z,40.03
2023-02-22T01:16:24.489Z,40.20
2023-02-22T01:18:53.933Z,37.20
2023-02-22T01:21:20.843Z,40.75
2023-02-22T01:23:47.641Z,38.08
2023-02-22T01:26:14.283Z,37.30
2023-02-22T01:28:40.933Z,38.77
2023-02-22T01:31:08.142Z,40.42
2023-02-22T01:33:34.935Z,39.70
2023-02-22T01:36:01.644Z,45.85
2023-02-22T01:38:29.589Z,40.47
2023-02-22T01:40:56.999Z,40.80
2023-02-22T01:43:32.395Z,43.00
2023-02-22T01:46:02.254Z,39.50
2023-02-22T01:48:52.122Z,39.58
2023-02-22T01:51:27.255Z,42.63
2023-02-22T01:54:01.470Z,40.80
2023-02-22T01:56:32.006Z,36.08
2023-02-22T01:59:07.054Z,41.30
2023-02-22T02:01:36.229Z,36.30
2023-02-22T02:04:10.653Z,38.20
2023-02-22T02:06:38.949Z,37.70
2023-02-22T02:09:37.746Z,41.53
2023-02-22T02:12:07.352Z,35.33
2023-02-22T02:14:41.955Z,37.35
2023-02-22T02:17:10.975Z,35.80
2023-02-22T02:20:14.141Z,38.17
2023-02-22T02:23:25.579Z,41.45
2023-02-22T02:26:22.211Z,34.42
2023-02-22T02:29:29.307Z,41.90
2023-02-22T02:32:23.113Z,39.35
2023-02-22T02:35:12.387Z,38.13
2023-02-22T02:37:57.797Z,39.00
2023-02-22T02:40:49.272Z,37.88
2023-02-22T02:43:42.108Z,38.25
2023-02-22T02:46:18.295Z,35.67
2023-02-22T02:49:01.061Z,37.83
2023-02-22T02:51:36.553Z,38.40
2023-02-22T02:54:04.850Z,39.58
2023-02-22T02:56:32.032Z,38.60
2023-02-22T02:58:58.774Z,39.20
2023-02-22T03:01:40.079Z,38.40
2023-02-22T03:04:30.994Z,37.00
2023-02-22T03:07:06.986Z,38.75
2023-02-22T03:09:54.908Z,40.75
2023-02-22T03:12:49.862Z,34.15
2023-02-22T03:15:32.568Z,39.30
2023-02-22T03:18:47.493Z,37.50
2023-02-22T03:21:27.267Z,41.03
2023-02-22T03:24:07.041Z,38.28
2023-02-22T03:26:43.616Z,36.20
2023-02-22T03:29:12.988Z,37.00
2023-02-22T03:31:45.500Z,40.03
2023-02-22T03:34:24.169Z,40.47
2023-02-22T03:36:58.939Z,39.45
2023-02-22T03:39:31.260Z,42.97
2023-02-22T03:42:05.197Z,37.93
2023-02-22T03:44:33.301Z,41.25
2023-02-22T03:47:06.622Z,37.97
2023-02-22T03:49:49.641Z,40.55
2023-02-22T03:52:17.395Z,38.38
2023-02-22T03:54:44.630Z,39.07
2023-02-22T03:57:19.621Z,41.35
2023-02-22T03:59:47.013Z,36.47
2023-02-22T04:02:14.261Z,39.65
2023-02-22T04:04:43.011Z,41.25
2023-02-22T04:07:09.614Z,36.03
2023-02-22T04:09:36.237Z,41.90
2023-02-22T04:12:05.082Z,39.70
2023-02-22T04:14:42.923Z,36.50
2023-02-22T04:17:10.428Z,39.33
2023-02-22T04:19:37.139Z,38.83
2023-02-22T04:22:03.748Z,38.28
2023-02-22T04:24:31.375Z,41.25
2023-02-22T04:26:58.048Z,35.65
2023-02-22T04:29:24.939Z,43.53
2023-02-22T04:31:52.182Z,44.30
2023-02-22T04:34:24.076Z,41.90
2023-02-22T04:36:53.465Z,45.55
2023-02-22T04:39:21.631Z,47.67
2023-02-22T04:41:50.118Z,43.25
2023-02-22T04:44:16.956Z,41.47
2023-02-22T04:46:43.842Z,41.65
2023-02-22T04:49:13.689Z,39.03
2023-02-22T04:51:41.317Z,46.78
2023-02-22T04:54:08.621Z,45.15
2023-02-22T04:56:35.256Z,41.47
2023-02-22T04:59:01.901Z,41.00
2023-02-22T05:01:38.466Z,43.15
2023-02-22T05:04:06.720Z,40.25
2023-02-22T05:06:33.372Z,41.20
2023-02-22T05:09:00.129Z,38.80
2023-02-22T05:11:26.611Z,44.60
2023-02-22T05:13:53.230Z,43.13
2023-02-22T05:16:19.917Z,41.22
2023-02-22T05:18:46.588Z,45.75
2023-02-22T05:21:13.708Z,42.07
2023-02-22T05:23:40.321Z,41.35
2023-02-22T05:26:08.403Z,41.80
2023-02-22T05:28:36.289Z,52.30
2023-02-22T05:31:03.060Z,48.40
2023-02-22T05:33:29.918Z,50.50
2023-02-22T05:35:56.521Z,47.33
2023-02-22T05:38:23.498Z,46.90
2023-02-22T05:40:50.527Z,44.83
2023-02-22T05:43:17.340Z,48.53
2023-02-22T05:45:44.035Z,48.23
2023-02-22T05:48:10.526Z,52.72
2023-02-22T05:50:37.098Z,45.20
2023-02-22T05:53:04.090Z,47.85
2023-02-22T05:55:30.980Z,44.95
2023-02-22T05:57:57.642Z,50.40
2023-02-22T06:00:30.127Z,45.38
2023-02-22T06:03:08.633Z,50.15
2023-02-22T06:05:36.064Z,48.30
2023-02-22T06:08:04.093Z,46.28
2023-02-22T06:10:30.986Z,46.47
2023-02-22T06:12:58.902Z,50.17
2023-02-22T06:15:27.362Z,56.65
2023-02-22T06:17:55.860Z,51.78
2023-02-22T06:20:24.167Z,51.90
2023-02-22T06:22:52.158Z,51.57
2023-02-22T06:25:22.170Z,59.00
2023-02-22T06:27:48.779Z,54.00
2023-02-22T06:30:17.112Z,60.35
2023-02-22T06:32:43.918Z,52.90
2023-02-22T06:35:10.582Z,56.63
2023-02-22T06:37:38.678Z,62.10
2023-02-22T06:40:06.176Z,57.60
2023-02-22T06:42:33.033Z,58.55
2023-02-22T06:44:59.782Z,56.63
2023-02-22T06:47:26.496Z,60.93
2023-02-22T06:49:57.567Z,61.65
2023-02-22T06:52:24.258Z,61.13
2023-02-22T06:54:51.764Z,58.35
2023-02-22T06:57:18.532Z,62.38
2023-02-22T06:59:45.132Z,65.20
2023-02-22T07:02:12.399Z,64.47
2023-02-22T07:04:40.419Z,61.70
2023-02-22T07:07:09.026Z,51.08
2023-02-22T07:09:35.625Z,56.85
2023-02-22T07:12:02.400Z,59.20
2023-02-22T07:14:28.925Z,59.95
2023-02-22T07:16:55.501Z,69.72
2023-02-22T07:19:22.070Z,58.70
2023-02-22T07:21:48.689Z,66.50
2023-02-22T07:24:15.268Z,64.60
2023-02-22T07:26:42.957Z,60.53
2023-02-22T07:29:11.307Z,60.40
2023-02-22T07:31:39.063Z,66.80
2023-02-22T07:34:06.717Z,69.55
2023-02-22T07:36:33.540Z,64.70
2023-02-22T07:39:00.137Z,63.83
2023-02-22T07:41:26.928Z,57.30
2023-02-22T07:43:53.589Z,56.55
2023-02-22T07:46:20.232Z,65.38
2023-02-22T07:48:46.974Z,58.40
2023-02-22T07:51:16.894Z,56.78
2023-02-22T07:53:43.896Z,64.63
2023-02-22T07:56:10.605Z,62.70
2023-02-22T07:58:37.389Z,59.38
2023-02-22T08:01:04.475Z,62.50
2023-02-22T08:03:36.759Z,64.28
2023-02-22T08:06:05.757Z,54.45
2023-02-22T08:08:32.548Z,54.78
2023-02-22T08:10:59.107Z,59.22
2023-02-22T08:13:25.709Z,60.40
2023-02-22T08:15:53.914Z,56.95
2023-02-22T08:18:21.927Z,44.67
2023-02-22T08:20:49.973Z,48.28
2023-02-22T08:23:19.059Z,40.25
2023-02-22T08:25:47.341Z,45.43
2023-02-22T08:28:16.768Z,46.13
2023-02-22T08:30:43.938Z,50.75
2023-02-22T08:33:16.809Z,46.38
2023-02-22T08:35:43.870Z,41.30
2023-02-22T08:38:26.978Z,41.90
2023-02-22T08:40:54.036Z,39.33
2023-02-22T08:43:22.011Z,36.60
2023-02-22T08:45:49.421Z,36.38
2023-02-22T08:48:16.082Z,38.38
2023-02-22T08:50:44.247Z,32.93
2023-02-22T08:53:13.540Z,36.50
2023-02-22T08:55:41.787Z,31.00
2023-02-22T08:58:12.475Z,34.13
2023-02-22T09:00:40.600Z,33.60
2023-02-22T09:03:10.456Z,31.07
2023-02-22T09:05:37.079Z,32.53
2023-02-22T09:08:04.144Z,35.78
2023-02-22T09:10:33.051Z,30.90
2023-02-22T09:13:01.377Z,27.52
2023-02-22T09:15:28.760Z,30.23
2023-02-22T09:17:56.145Z,28.67
2023-02-22T09:20:24.434Z,29.85
2023-02-22T09:22:51.092Z,31.40
2023-02-22T09:25:20.594Z,26.98
2023-02-22T09:27:52.207Z,34.07
2023-02-22T09:30:28.280Z,32.03
2023-02-22T09:32:58.094Z,28.42
2023-02-22T09:35:27.509Z,32.38
2023-02-22T09:37:59.001Z,27.23
2023-02-22T09:40:33.761Z,29.50
2023-02-22T09:43:40.634Z,28.90
2023-02-22T09:46:38.371Z,28.92
2023-02-22T09:49:25.383Z,29.42
2023-02-22T09:52:07.911Z,25.52
2023-02-22T09:55:06.906Z,25.43
2023-02-22T09:57:43.824Z,30.70
2023-02-22T10:00:19.071Z,27.88
2023-02-22T10:03:07.007Z,28.70
2023-02-22T10:05:37.850Z,27.15
2023-02-22T10:08:10.649Z,23.93
2023-02-22T10:10:41.288Z,27.67
2023-02-22T10:13:24.172Z,28.13
2023-02-22T10:16:10.342Z,30.90
2023-02-22T10:19:04.412Z,30.00
2023-02-22T10:21:52.615Z,27.43
2023-02-22T10:24:53.409Z,28.85
2023-02-22T10:27:31.999Z,31.77
2023-02-22T10:30:25.070Z,29.20
2023-02-22T10:33:20.100Z,24.25
2023-02-22T10:35:47.478Z,23.03
2023-02-22T10:38:35.520Z,22.95
2023-02-22T10:41:08.521Z,23.15
2023-02-22T10:43:40.845Z,22.33
2023-02-22T10:46:09.820Z,24.45
2023-02-22T10:48:40.186Z,21.03
2023-02-22T10:51:13.620Z,21.80
2023-02-22T10:53:40.452Z,19.85
2023-02-22T10:56:29.564Z,23.40
2023-02-22T10:59:02.709Z,17.90
2023-02-22T11:01:38.011Z,20.40
2023-02-22T11:04:20.043Z,19.67
2023-02-22T11:06:49.933Z,18.55
2023-02-22T11:09:24.329Z,20.17
2023-02-22T11:12:14.686Z,17.48
2023-02-22T11:14:42.717Z,19.33
2023-02-22T11:17:31.577Z,18.23
2023-02-22T11:20:18.142Z,21.38
2023-02-22T11:22:44.820Z,20.27
2023-02-22T11:25:25.004Z,10.68
2023-02-22T11:27:52.540Z,22.23
2023-02-22T11:33:38.390Z,19.02
2023-02-22T11:37:14.814Z,19.17
2023-02-22T11:40:37.339Z,17.77
2023-02-22T11:43:16.877Z,19.90
2023-02-22T11:46:22.485Z,18.77
2023-02-22T11:49:00.813Z,19.05
2023-02-22T11:51:46.641Z,20.25
2023-02-22T11:54:22.377Z,20.02
2023-02-22T12:04:23.996Z,18.73
2023-02-22T12:07:09.511Z,20.70
2023-02-22T12:09:54.870Z,17.13
2023-02-22T12:12:37.853Z,16.93
2023-02-22T12:15:25.355Z,21.77
2023-02-22T12:18:17.449Z,16.05
2023-02-22T12:21:09.276Z,18.83
2023-02-22T12:28:40.504Z,15.43
2023-02-22T12:32:25.114Z,15.95
2023-02-22T12:35:58.440Z,15.18
2023-02-22T12:38:44.436Z,19.58
2023-02-22T12:41:38.089Z,20.20
2023-02-22T12:45:09.848Z,16.77
2023-02-22T12:47:45.879Z,18.38
2023-02-22T12:50:27.476Z,18.08
2023-02-22T12:53:06.739Z,20.13
2023-02-22T12:55:56.702Z,16.27
2023-02-22T12:59:01.901Z,16.70
2023-02-22T13:07:24.115Z,15.73
2023-02-22T13:14:33.369Z,15.80
2023-02-22T13:19:27.802Z,14.80
2023-02-22T13:22:20.073Z,12.90
2023-02-22T13:26:32.539Z,14.20
2023-02-22T13:41:01.728Z,13.02
2023-02-22T13:43:58.515Z,11.45
2023-02-22T13:47:22.648Z,11.70
2023-02-22T13:50:18.315Z,14.43
2023-02-22T13:52:46.096Z,12.60
2023-02-22T13:55:35.980Z,11.20
2023-02-22T13:58:26.968Z,12.38
2023-02-22T14:01:01.242Z,12.25
2023-02-22T14:03:46.449Z,11.85
2023-02-22T14:22:08.815Z,11.85
2023-02-22T14:25:09.844Z,9.60
2023-02-22T14:27:42.603Z,9.65
2023-02-22T14:30:26.208Z,9.20
2023-02-22T14:32:53.626Z,10.23
2023-02-22T14:36:38.636Z,11.00
2023-02-22T14:39:27.455Z,10.47
2023-02-22T14:54:17.782Z,10.15
2023-02-22T14:57:32.380Z,9.47
2023-02-22T15:04:01.986Z,5.18
2023-02-22T16:13:59.071Z,5.55
2023-02-22T18:37:22.525Z,6.32
2023-02-22T18:39:55.562Z,9.23
2023-02-22T18:42:25.623Z,6.13
2023-02-22T18:48:05.286Z,7.22
2023-02-22T18:50:41.454Z,6.05
2023-02-22T19:12:27.225Z,8.35
2023-02-22T19:15:01.484Z,8.03
2023-02-22T20:52:20.569Z,8.55
2023-02-22T20:55:21.898Z,6.93
2023-02-22T20:57:50.910Z,7.43
2023-02-22T21:00:32.183Z,8.57
2023-02-22T21:03:25.267Z,7.50
2023-02-22T21:06:23.698Z,7.10
2023-02-22T21:09:52.161Z,9.03
2023-02-22T21:16:21.927Z,7.63
2023-02-22T21:19:08.525Z,7.90
2023-02-22T21:21:42.233Z,9.32
2023-02-22T21:24:22.087Z,6.63
2023-02-22T21:26:58.061Z,6.88
2023-02-22T21:29:33.816Z,7.13
2023-02-22T21:32:27.026Z,6.75
2023-02-22T21:35:25.492Z,7.40
2023-02-22T21:37:57.221Z,9.43
2023-02-22T21:52:20.740Z,8.05
2023-02-22T22:03:11.160Z,6.30
2023-02-22T22:05:52.952Z,6.70
2023-02-22T22:09:43.923Z,6.50
2023-02-22T22:12:13.521Z,10.77
2023-02-22T22:14:56.991Z,7.97
2023-02-22T22:17:45.829Z,6.90
2023-02-22T22:24:10.945Z,11.07
2023-02-22T22:26:51.892Z,8.77
2023-02-22T22:29:37.494Z,10.25
2023-02-22T22:32:06.111Z,7.32
2023-02-22T22:34:38.192Z,11.00
2023-02-22T22:37:30.448Z,8.05
2023-02-22T22:40:05.419Z,8.40
2023-02-22T22:42:32.514Z,13.40
2023-02-22T22:45:16.504Z,13.77
2023-02-22T22:47:50.630Z,8.82
2023-02-22T22:50:20.100Z,10.07
2023-02-22T22:52:53.937Z,10.20
2023-02-22T22:56:19.332Z,9.80
2023-02-22T22:59:09.822Z,9.35
2023-02-22T23:01:45.021Z,8.82
2023-02-22T23:04:17.359Z,15.27
2023-02-22T23:06:46.730Z,10.23
2023-02-22T23:09:24.310Z,7.15
2023-02-22T23:11:56.928Z,11.13
2023-02-22T23:14:31.523Z,10.60
2023-02-22T23:17:03.973Z,12.23
2023-02-22T23:19:35.034Z,9.50
2023-02-22T23:22:11.791Z,10.90
2023-02-22T23:24:49.277Z,9.55
2023-02-22T23:27:24.176Z,18.63
2023-02-22T23:29:51.518Z,16.23
2023-02-22T23:32:18.508Z,10.90
2023-02-22T23:34:48.348Z,12.70
2023-02-22T23:37:16.072Z,10.82
2023-02-22T23:39:51.743Z,15.10
2023-02-22T23:42:19.027Z,15.73
2023-02-22T23:44:48.086Z,9.53
